sensor_id;sensor_type;location;lat;lon;timestamp;temperature;humidity
21033;DHT22;10675;47.976;7.824;2022-10-16T00:01:56;15.50;99.90
21033;DHT22;10675;47.976;7.824;2022-10-16T00:04:22;15.50;99.90
21033;DHT22;10675;47.976;7.824;2022-10-16T00:06:47;15.60;99.90
21033;DHT22;10675;47.976;7.824;2022-10-16T00:09:13;15.60;99.90
21033;DHT22;10675;47.976;7.824;2022-10-16T00:11:39;15.60;99.90
21033;DHT22;10675;47.976;7.824;2022-10-16T00:14:09;15.60;99.90
21033;DHT22;10675;47.976;7.824;2022-10-16T00:16:36;15.60;99.90
21033;DHT22;10675;47.976;7.824;2022-10-16T00:19:02;15.50;99.90
21033;DHT22;10675;47.976;7.824;2022-10-16T00:21:29;15.50;99.90
21033;DHT22;10675;47.976;7.824;2022-10-16T00:23:58;15.50;99.90
21033;DHT22;10675;47.976;7.824;2022-10-16T00:26:24;15.50;99.90
21033;DHT22;10675;47.976;7.824;2022-10-16T00:28:50;15.50;99.90
21033;DHT22;10675;47.976;7.824;2022-10-16T00:31:18;15.60;99.90
21033;DHT22;10675;47.976;7.824;2022-10-16T00:33:43;15.50;99.90
21033;DHT22;10675;47.976;7.824;2022-10-16T00:36:12;15.50;99.90
21033;DHT22;10675;47.976;7.824;2022-10-16T00:38:38;15.50;99.90
21033;DHT22;10675;47.976;7.824;2022-10-16T00:41:05;15.50;99.90
21033;DHT22;10675;47.976;7.824;2022-10-16T00:46:03;15.50;99.90
21033;DHT22;10675;47.976;7.824;2022-10-16T00:48:30;15.50;99.90
21033;DHT22;10675;47.976;7.824;2022-10-16T00:50:57;15.50;99.90
21033;DHT22;10675;47.976;7.824;2022-10-16T00:53:24;15.60;99.90
21033;DHT22;10675;47.976;7.824;2022-10-16T00:55:50;15.60;99.90
21033;DHT22;10675;47.976;7.824;2022-10-16T00:58:16;15.60;99.90
21033;DHT22;10675;47.976;7.824;2022-10-16T01:00:41;15.50;99.90
21033;DHT22;10675;47.976;7.824;2022-10-16T01:03:30;15.60;99.90
21033;DHT22;10675;47.976;7.824;2022-10-16T01:06:04;15.60;99.90
21033;DHT22;10675;47.976;7.824;2022-10-16T01:11:23;15.50;99.90
21033;DHT22;10675;47.976;7.824;2022-10-16T01:13:55;15.40;99.90
21033;DHT22;10675;47.976;7.824;2022-10-16T01:16:48;15.40;99.90
21033;DHT22;10675;47.976;7.824;2022-10-16T01:19:46;15.40;99.90
21033;DHT22;10675;47.976;7.824;2022-10-16T01:22:13;15.40;99.90
21033;DHT22;10675;47.976;7.824;2022-10-16T01:24:49;15.40;99.90
21033;DHT22;10675;47.976;7.824;2022-10-16T01:27:22;15.40;99.90
21033;DHT22;10675;47.976;7.824;2022-10-16T01:29:54;15.30;99.90
21033;DHT22;10675;47.976;7.824;2022-10-16T01:32:28;15.30;99.90
21033;DHT22;10675;47.976;7.824;2022-10-16T01:35:09;15.20;99.90
21033;DHT22;10675;47.976;7.824;2022-10-16T01:40:18;15.20;99.90
21033;DHT22;10675;47.976;7.824;2022-10-16T01:42:56;15.20;99.90
21033;DHT22;10675;47.976;7.824;2022-10-16T01:45:24;15.20;99.90
21033;DHT22;10675;47.976;7.824;2022-10-16T01:47:50;15.20;99.90
21033;DHT22;10675;47.976;7.824;2022-10-16T01:50:18;15.20;99.90
21033;DHT22;10675;47.976;7.824;2022-10-16T01:52:48;15.10;99.90
21033;DHT22;10675;47.976;7.824;2022-10-16T01:55:19;15.10;99.90
21033;DHT22;10675;47.976;7.824;2022-10-16T01:57:49;15.10;99.90
21033;DHT22;10675;47.976;7.824;2022-10-16T02:00:16;15.10;99.90
21033;DHT22;10675;47.976;7.824;2022-10-16T02:02:46;15.00;99.90
21033;DHT22;10675;47.976;7.824;2022-10-16T02:05:20;15.00;99.90
21033;DHT22;10675;47.976;7.824;2022-10-16T02:07:48;14.90;99.90
21033;DHT22;10675;47.976;7.824;2022-10-16T02:10:14;14.90;99.90
21033;DHT22;10675;47.976;7.824;2022-10-16T02:12:44;14.90;99.90
21033;DHT22;10675;47.976;7.824;2022-10-16T02:15:11;14.90;99.90
21033;DHT22;10675;47.976;7.824;2022-10-16T02:17:36;14.90;99.90
21033;DHT22;10675;47.976;7.824;2022-10-16T02:20:03;14.90;99.90
21033;DHT22;10675;47.976;7.824;2022-10-16T02:22:36;14.90;99.90
21033;DHT22;10675;47.976;7.824;2022-10-16T02:25:22;15.00;99.90
21033;DHT22;10675;47.976;7.824;2022-10-16T02:27:55;15.10;99.90
21033;DHT22;10675;47.976;7.824;2022-10-16T02:30:26;15.10;99.90
21033;DHT22;10675;47.976;7.824;2022-10-16T02:32:53;15.10;99.90
21033;DHT22;10675;47.976;7.824;2022-10-16T02:35:20;15.10;99.90
21033;DHT22;10675;47.976;7.824;2022-10-16T02:37:47;15.10;99.90
21033;DHT22;10675;47.976;7.824;2022-10-16T02:40:15;15.10;99.90
21033;DHT22;10675;47.976;7.824;2022-10-16T02:42:40;15.10;99.90
21033;DHT22;10675;47.976;7.824;2022-10-16T02:45:07;15.10;99.90
21033;DHT22;10675;47.976;7.824;2022-10-16T02:47:34;15.10;99.90
21033;DHT22;10675;47.976;7.824;2022-10-16T02:49:59;15.10;99.90
21033;DHT22;10675;47.976;7.824;2022-10-16T02:52:25;15.10;99.90
21033;DHT22;10675;47.976;7.824;2022-10-16T02:54:51;15.20;99.90
21033;DHT22;10675;47.976;7.824;2022-10-16T02:57:17;15.20;99.90
21033;DHT22;10675;47.976;7.824;2022-10-16T02:59:43;15.20;99.90
21033;DHT22;10675;47.976;7.824;2022-10-16T03:02:09;15.20;99.90
21033;DHT22;10675;47.976;7.824;2022-10-16T03:04:34;15.20;99.90
21033;DHT22;10675;47.976;7.824;2022-10-16T03:07:00;15.20;99.90
21033;DHT22;10675;47.976;7.824;2022-10-16T03:09:26;15.30;99.90
21033;DHT22;10675;47.976;7.824;2022-10-16T03:11:51;15.20;99.90
21033;DHT22;10675;47.976;7.824;2022-10-16T03:14:17;15.30;99.90
21033;DHT22;10675;47.976;7.824;2022-10-16T03:16:43;15.20;99.90
21033;DHT22;10675;47.976;7.824;2022-10-16T03:19:08;15.30;99.90
21033;DHT22;10675;47.976;7.824;2022-10-16T03:21:34;15.30;99.90
21033;DHT22;10675;47.976;7.824;2022-10-16T03:23:59;15.20;99.90
21033;DHT22;10675;47.976;7.824;2022-10-16T03:26:25;15.20;99.90
21033;DHT22;10675;47.976;7.824;2022-10-16T03:28:50;15.20;99.90
21033;DHT22;10675;47.976;7.824;2022-10-16T03:31:16;15.20;99.90
21033;DHT22;10675;47.976;7.824;2022-10-16T03:33:41;15.20;99.90
21033;DHT22;10675;47.976;7.824;2022-10-16T03:36:07;15.20;99.90
21033;DHT22;10675;47.976;7.824;2022-10-16T03:38:33;15.20;99.90
21033;DHT22;10675;47.976;7.824;2022-10-16T03:40:58;15.20;99.90
21033;DHT22;10675;47.976;7.824;2022-10-16T03:43:24;15.20;99.90
21033;DHT22;10675;47.976;7.824;2022-10-16T03:45:52;15.20;99.90
21033;DHT22;10675;47.976;7.824;2022-10-16T03:48:19;15.20;99.90
21033;DHT22;10675;47.976;7.824;2022-10-16T03:50:44;15.20;99.90
21033;DHT22;10675;47.976;7.824;2022-10-16T03:53:12;15.20;99.90
21033;DHT22;10675;47.976;7.824;2022-10-16T03:55:37;15.20;99.90
21033;DHT22;10675;47.976;7.824;2022-10-16T03:58:03;15.20;99.90
21033;DHT22;10675;47.976;7.824;2022-10-16T04:00:28;15.30;99.90
21033;DHT22;10675;47.976;7.824;2022-10-16T04:02:54;15.20;99.90
21033;DHT22;10675;47.976;7.824;2022-10-16T04:05:19;15.30;99.90
21033;DHT22;10675;47.976;7.824;2022-10-16T04:07:45;15.30;99.90
21033;DHT22;10675;47.976;7.824;2022-10-16T04:10:11;15.30;99.90
21033;DHT22;10675;47.976;7.824;2022-10-16T04:12:36;15.20;99.90
21033;DHT22;10675;47.976;7.824;2022-10-16T04:15:02;15.20;99.90
21033;DHT22;10675;47.976;7.824;2022-10-16T04:17:28;15.20;99.90
21033;DHT22;10675;47.976;7.824;2022-10-16T04:19:53;15.20;99.90
21033;DHT22;10675;47.976;7.824;2022-10-16T04:22:19;15.20;99.90
21033;DHT22;10675;47.976;7.824;2022-10-16T04:24:44;15.30;99.90
21033;DHT22;10675;47.976;7.824;2022-10-16T04:27:10;15.30;99.90
21033;DHT22;10675;47.976;7.824;2022-10-16T04:29:35;15.30;99.90
21033;DHT22;10675;47.976;7.824;2022-10-16T04:32:01;15.30;99.90
21033;DHT22;10675;47.976;7.824;2022-10-16T04:34:27;15.30;99.90
21033;DHT22;10675;47.976;7.824;2022-10-16T04:36:52;15.40;99.90
21033;DHT22;10675;47.976;7.824;2022-10-16T04:39:18;15.40;99.90
21033;DHT22;10675;47.976;7.824;2022-10-16T04:41:43;15.40;99.90
21033;DHT22;10675;47.976;7.824;2022-10-16T04:44:09;15.40;99.90
21033;DHT22;10675;47.976;7.824;2022-10-16T04:46:34;15.30;99.90
21033;DHT22;10675;47.976;7.824;2022-10-16T04:49:00;15.40;99.90
21033;DHT22;10675;47.976;7.824;2022-10-16T04:51:25;15.30;99.90
21033;DHT22;10675;47.976;7.824;2022-10-16T04:53:53;15.40;99.90
21033;DHT22;10675;47.976;7.824;2022-10-16T04:56:18;15.40;99.90
21033;DHT22;10675;47.976;7.824;2022-10-16T04:58:44;15.40;99.90
21033;DHT22;10675;47.976;7.824;2022-10-16T05:01:09;15.40;99.90
21033;DHT22;10675;47.976;7.824;2022-10-16T05:03:35;15.40;99.90
21033;DHT22;10675;47.976;7.824;2022-10-16T05:06:00;15.40;99.90
21033;DHT22;10675;47.976;7.824;2022-10-16T05:08:26;15.50;99.90
21033;DHT22;10675;47.976;7.824;2022-10-16T05:10:51;15.40;99.90
21033;DHT22;10675;47.976;7.824;2022-10-16T05:13:17;15.40;99.90
21033;DHT22;10675;47.976;7.824;2022-10-16T05:15:47;15.40;99.90
21033;DHT22;10675;47.976;7.824;2022-10-16T05:18:13;15.40;99.90
21033;DHT22;10675;47.976;7.824;2022-10-16T05:20:39;15.30;99.90
21033;DHT22;10675;47.976;7.824;2022-10-16T05:23:04;15.30;99.90
21033;DHT22;10675;47.976;7.824;2022-10-16T05:25:30;15.30;99.90
21033;DHT22;10675;47.976;7.824;2022-10-16T05:27:55;15.30;99.90
21033;DHT22;10675;47.976;7.824;2022-10-16T05:30:21;15.30;99.90
21033;DHT22;10675;47.976;7.824;2022-10-16T05:32:48;15.30;99.90
21033;DHT22;10675;47.976;7.824;2022-10-16T05:35:15;15.30;99.90
21033;DHT22;10675;47.976;7.824;2022-10-16T05:37:40;15.20;99.90
21033;DHT22;10675;47.976;7.824;2022-10-16T05:40:06;15.20;99.90
21033;DHT22;10675;47.976;7.824;2022-10-16T05:42:32;15.20;99.90
21033;DHT22;10675;47.976;7.824;2022-10-16T05:44:58;15.20;99.90
21033;DHT22;10675;47.976;7.824;2022-10-16T05:47:23;15.10;99.90
21033;DHT22;10675;47.976;7.824;2022-10-16T05:49:49;15.20;99.90
21033;DHT22;10675;47.976;7.824;2022-10-16T05:52:14;15.20;99.90
21033;DHT22;10675;47.976;7.824;2022-10-16T05:54:40;15.20;99.90
21033;DHT22;10675;47.976;7.824;2022-10-16T05:57:05;15.20;99.90
21033;DHT22;10675;47.976;7.824;2022-10-16T05:59:31;15.20;99.90
21033;DHT22;10675;47.976;7.824;2022-10-16T06:01:57;15.30;99.90
21033;DHT22;10675;47.976;7.824;2022-10-16T06:04:23;15.30;99.90
21033;DHT22;10675;47.976;7.824;2022-10-16T06:06:48;15.30;99.90
21033;DHT22;10675;47.976;7.824;2022-10-16T06:09:14;15.30;99.90
21033;DHT22;10675;47.976;7.824;2022-10-16T06:11:39;15.30;99.90
21033;DHT22;10675;47.976;7.824;2022-10-16T06:14:05;15.40;99.90
21033;DHT22;10675;47.976;7.824;2022-10-16T06:16:33;15.40;99.90
21033;DHT22;10675;47.976;7.824;2022-10-16T06:18:59;15.40;99.90
21033;DHT22;10675;47.976;7.824;2022-10-16T06:21:27;15.40;99.90
21033;DHT22;10675;47.976;7.824;2022-10-16T06:23:53;15.50;99.90
21033;DHT22;10675;47.976;7.824;2022-10-16T06:26:22;15.50;99.90
21033;DHT22;10675;47.976;7.824;2022-10-16T06:28:48;15.60;99.90
21033;DHT22;10675;47.976;7.824;2022-10-16T06:31:15;15.60;99.90
21033;DHT22;10675;47.976;7.824;2022-10-16T06:33:41;15.60;99.90
21033;DHT22;10675;47.976;7.824;2022-10-16T06:36:12;15.60;99.90
21033;DHT22;10675;47.976;7.824;2022-10-16T06:38:38;15.60;99.90
21033;DHT22;10675;47.976;7.824;2022-10-16T06:41:05;15.60;99.90
21033;DHT22;10675;47.976;7.824;2022-10-16T06:43:32;15.60;99.90
21033;DHT22;10675;47.976;7.824;2022-10-16T06:45:59;15.60;99.90
21033;DHT22;10675;47.976;7.824;2022-10-16T06:48:25;15.60;99.90
21033;DHT22;10675;47.976;7.824;2022-10-16T06:50:58;15.60;99.90
21033;DHT22;10675;47.976;7.824;2022-10-16T06:53:24;15.60;99.90
21033;DHT22;10675;47.976;7.824;2022-10-16T06:55:50;15.60;99.90
21033;DHT22;10675;47.976;7.824;2022-10-16T06:58:15;15.60;99.90
21033;DHT22;10675;47.976;7.824;2022-10-16T07:00:41;15.60;99.90
21033;DHT22;10675;47.976;7.824;2022-10-16T07:03:06;15.60;99.90
21033;DHT22;10675;47.976;7.824;2022-10-16T07:05:36;15.60;99.90
21033;DHT22;10675;47.976;7.824;2022-10-16T07:08:02;15.60;99.90
21033;DHT22;10675;47.976;7.824;2022-10-16T07:10:30;15.60;99.90
21033;DHT22;10675;47.976;7.824;2022-10-16T07:12:56;15.70;99.90
21033;DHT22;10675;47.976;7.824;2022-10-16T07:15:22;15.70;99.90
21033;DHT22;10675;47.976;7.824;2022-10-16T07:17:47;15.70;99.90
21033;DHT22;10675;47.976;7.824;2022-10-16T07:20:13;15.70;99.90
21033;DHT22;10675;47.976;7.824;2022-10-16T07:22:38;15.70;99.90
21033;DHT22;10675;47.976;7.824;2022-10-16T07:25:04;15.70;99.90
21033;DHT22;10675;47.976;7.824;2022-10-16T07:27:30;15.80;99.90
21033;DHT22;10675;47.976;7.824;2022-10-16T07:29:55;15.80;99.90
21033;DHT22;10675;47.976;7.824;2022-10-16T07:32:21;15.90;99.90
21033;DHT22;10675;47.976;7.824;2022-10-16T07:34:46;16.00;99.90
21033;DHT22;10675;47.976;7.824;2022-10-16T07:37:12;16.00;99.90
21033;DHT22;10675;47.976;7.824;2022-10-16T07:39:38;16.10;99.90
21033;DHT22;10675;47.976;7.824;2022-10-16T07:42:03;16.20;99.90
21033;DHT22;10675;47.976;7.824;2022-10-16T07:44:29;16.30;99.90
21033;DHT22;10675;47.976;7.824;2022-10-16T07:46:54;16.40;99.90
21033;DHT22;10675;47.976;7.824;2022-10-16T07:49:20;16.40;99.90
21033;DHT22;10675;47.976;7.824;2022-10-16T07:51:45;16.50;99.90
21033;DHT22;10675;47.976;7.824;2022-10-16T07:54:11;16.60;99.90
21033;DHT22;10675;47.976;7.824;2022-10-16T07:56:36;16.80;99.90
21033;DHT22;10675;47.976;7.824;2022-10-16T07:59:02;16.80;99.90
21033;DHT22;10675;47.976;7.824;2022-10-16T08:01:28;16.90;99.90
21033;DHT22;10675;47.976;7.824;2022-10-16T08:03:53;17.00;99.90
21033;DHT22;10675;47.976;7.824;2022-10-16T08:06:21;17.10;99.90
21033;DHT22;10675;47.976;7.824;2022-10-16T08:08:47;17.20;99.90
21033;DHT22;10675;47.976;7.824;2022-10-16T08:11:13;17.30;99.90
21033;DHT22;10675;47.976;7.824;2022-10-16T08:13:40;17.40;99.90
21033;DHT22;10675;47.976;7.824;2022-10-16T08:16:06;17.50;99.90
21033;DHT22;10675;47.976;7.824;2022-10-16T08:18:37;17.60;99.90
21033;DHT22;10675;47.976;7.824;2022-10-16T08:21:04;17.70;99.90
21033;DHT22;10675;47.976;7.824;2022-10-16T08:23:30;17.80;99.90
21033;DHT22;10675;47.976;7.824;2022-10-16T08:26:04;17.90;99.90
21033;DHT22;10675;47.976;7.824;2022-10-16T08:28:30;17.90;99.90
21033;DHT22;10675;47.976;7.824;2022-10-16T08:30:55;17.90;99.90
21033;DHT22;10675;47.976;7.824;2022-10-16T08:33:22;18.10;99.90
21033;DHT22;10675;47.976;7.824;2022-10-16T08:35:52;18.10;99.90
21033;DHT22;10675;47.976;7.824;2022-10-16T08:38:19;18.30;99.90
21033;DHT22;10675;47.976;7.824;2022-10-16T08:40:44;18.40;99.90
21033;DHT22;10675;47.976;7.824;2022-10-16T08:48:45;18.80;99.90
21033;DHT22;10675;47.976;7.824;2022-10-16T08:51:24;18.80;99.90
21033;DHT22;10675;47.976;7.824;2022-10-16T08:53:56;18.80;99.90
21033;DHT22;10675;47.976;7.824;2022-10-16T08:56:23;18.80;99.90
21033;DHT22;10675;47.976;7.824;2022-10-16T08:58:49;18.80;99.90
21033;DHT22;10675;47.976;7.824;2022-10-16T09:01:17;18.60;99.90
21033;DHT22;10675;47.976;7.824;2022-10-16T09:15:53;19.00;99.90
21033;DHT22;10675;47.976;7.824;2022-10-16T09:18:27;19.20;99.90
21033;DHT22;10675;47.976;7.824;2022-10-16T09:23:37;19.40;99.90
21033;DHT22;10675;47.976;7.824;2022-10-16T09:26:04;19.50;99.90
21033;DHT22;10675;47.976;7.824;2022-10-16T09:28:30;19.70;99.90
21033;DHT22;10675;47.976;7.824;2022-10-16T09:30:56;20.00;99.90
21033;DHT22;10675;47.976;7.824;2022-10-16T09:33:25;20.30;99.90
21033;DHT22;10675;47.976;7.824;2022-10-16T09:35:55;20.40;99.90
21033;DHT22;10675;47.976;7.824;2022-10-16T09:38:29;20.70;99.90
21033;DHT22;10675;47.976;7.824;2022-10-16T09:41:00;20.80;99.90
21033;DHT22;10675;47.976;7.824;2022-10-16T09:43:28;21.00;99.90
21033;DHT22;10675;47.976;7.824;2022-10-16T09:46:06;21.30;99.90
21033;DHT22;10675;47.976;7.824;2022-10-16T09:48:48;21.60;99.90
21033;DHT22;10675;47.976;7.824;2022-10-16T09:51:35;21.90;99.90
21033;DHT22;10675;47.976;7.824;2022-10-16T09:56:38;22.50;99.90
21033;DHT22;10675;47.976;7.824;2022-10-16T09:59:15;22.90;98.10
21033;DHT22;10675;47.976;7.824;2022-10-16T10:01:46;23.00;96.40
21033;DHT22;10675;47.976;7.824;2022-10-16T10:04:12;23.30;94.20
21033;DHT22;10675;47.976;7.824;2022-10-16T10:06:47;23.30;93.30
21033;DHT22;10675;47.976;7.824;2022-10-16T10:09:37;23.10;93.10
21033;DHT22;10675;47.976;7.824;2022-10-16T10:12:05;23.10;89.30
21033;DHT22;10675;47.976;7.824;2022-10-16T10:14:47;23.20;91.40
21033;DHT22;10675;47.976;7.824;2022-10-16T10:17:16;23.10;91.70
21033;DHT22;10675;47.976;7.824;2022-10-16T10:20:13;23.10;90.90
21033;DHT22;10675;47.976;7.824;2022-10-16T10:22:42;23.20;91.20
21033;DHT22;10675;47.976;7.824;2022-10-16T10:38:51;23.20;88.80
21033;DHT22;10675;47.976;7.824;2022-10-16T10:41:44;23.20;84.70
21033;DHT22;10675;47.976;7.824;2022-10-16T10:47:31;23.40;87.80
21033;DHT22;10675;47.976;7.824;2022-10-16T10:53:05;23.40;84.20
21033;DHT22;10675;47.976;7.824;2022-10-16T10:55:54;23.60;80.00
21033;DHT22;10675;47.976;7.824;2022-10-16T10:58:42;23.60;80.00
21033;DHT22;10675;47.976;7.824;2022-10-16T11:01:22;23.60;77.90
21033;DHT22;10675;47.976;7.824;2022-10-16T11:04:05;23.50;81.20
21033;DHT22;10675;47.976;7.824;2022-10-16T11:06:44;23.60;77.50
21033;DHT22;10675;47.976;7.824;2022-10-16T11:11:46;23.60;77.90
21033;DHT22;10675;47.976;7.824;2022-10-16T11:17:02;23.70;78.10
21033;DHT22;10675;47.976;7.824;2022-10-16T11:19:49;23.70;77.80
21033;DHT22;10675;47.976;7.824;2022-10-16T11:28:13;23.80;77.10
21033;DHT22;10675;47.976;7.824;2022-10-16T11:30:50;23.80;76.40
21033;DHT22;10675;47.976;7.824;2022-10-16T11:43:58;23.60;78.70
21033;DHT22;10675;47.976;7.824;2022-10-16T11:46:27;23.80;78.70
21033;DHT22;10675;47.976;7.824;2022-10-16T11:49:13;24.10;79.50
21033;DHT22;10675;47.976;7.824;2022-10-16T11:51:43;24.10;76.60
21033;DHT22;10675;47.976;7.824;2022-10-16T11:54:24;24.10;76.20
21033;DHT22;10675;47.976;7.824;2022-10-16T11:56:54;24.20;76.70
21033;DHT22;10675;47.976;7.824;2022-10-16T11:59:28;24.10;76.70
21033;DHT22;10675;47.976;7.824;2022-10-16T12:02:27;24.20;78.70
21033;DHT22;10675;47.976;7.824;2022-10-16T12:07:56;24.20;75.10
21033;DHT22;10675;47.976;7.824;2022-10-16T12:10:28;24.30;74.40
21033;DHT22;10675;47.976;7.824;2022-10-16T12:12:56;24.30;75.80
21033;DHT22;10675;47.976;7.824;2022-10-16T12:15:28;24.20;76.10
21033;DHT22;10675;47.976;7.824;2022-10-16T12:17:54;24.30;76.30
21033;DHT22;10675;47.976;7.824;2022-10-16T12:23:05;24.30;77.20
21033;DHT22;10675;47.976;7.824;2022-10-16T12:25:35;24.30;73.70
21033;DHT22;10675;47.976;7.824;2022-10-16T12:28:27;24.30;73.20
21033;DHT22;10675;47.976;7.824;2022-10-16T12:30:54;24.40;74.20
21033;DHT22;10675;47.976;7.824;2022-10-16T12:33:52;24.30;73.60
21033;DHT22;10675;47.976;7.824;2022-10-16T12:36:26;24.20;74.40
21033;DHT22;10675;47.976;7.824;2022-10-16T12:38:52;24.20;74.90
21033;DHT22;10675;47.976;7.824;2022-10-16T12:41:35;24.40;75.10
21033;DHT22;10675;47.976;7.824;2022-10-16T12:44:05;24.20;72.60
21033;DHT22;10675;47.976;7.824;2022-10-16T12:51:40;24.10;73.40
21033;DHT22;10675;47.976;7.824;2022-10-16T12:54:27;24.10;74.20
21033;DHT22;10675;47.976;7.824;2022-10-16T13:00:00;24.20;72.20
21033;DHT22;10675;47.976;7.824;2022-10-16T13:02:39;24.30;74.30
21033;DHT22;10675;47.976;7.824;2022-10-16T13:13:55;24.30;71.40
21033;DHT22;10675;47.976;7.824;2022-10-16T13:16:35;24.50;73.00
21033;DHT22;10675;47.976;7.824;2022-10-16T13:19:29;24.60;72.70
21033;DHT22;10675;47.976;7.824;2022-10-16T13:24:50;24.50;70.10
21033;DHT22;10675;47.976;7.824;2022-10-16T13:32:48;24.40;70.80
21033;DHT22;10675;47.976;7.824;2022-10-16T13:35:26;24.20;71.70
21033;DHT22;10675;47.976;7.824;2022-10-16T13:38:13;24.40;72.90
21033;DHT22;10675;47.976;7.824;2022-10-16T13:40:50;24.40;73.10
21033;DHT22;10675;47.976;7.824;2022-10-16T13:43:18;24.20;72.60
21033;DHT22;10675;47.976;7.824;2022-10-16T13:46:05;24.10;71.90
21033;DHT22;10675;47.976;7.824;2022-10-16T13:48:32;24.10;73.10
21033;DHT22;10675;47.976;7.824;2022-10-16T13:51:04;24.10;76.70
21033;DHT22;10675;47.976;7.824;2022-10-16T13:53:35;24.00;81.20
21033;DHT22;10675;47.976;7.824;2022-10-16T13:56:09;23.90;82.30
21033;DHT22;10675;47.976;7.824;2022-10-16T13:58:35;23.70;75.50
21033;DHT22;10675;47.976;7.824;2022-10-16T14:01:06;23.80;75.40
21033;DHT22;10675;47.976;7.824;2022-10-16T14:03:40;23.70;76.50
21033;DHT22;10675;47.976;7.824;2022-10-16T14:06:12;23.80;77.80
21033;DHT22;10675;47.976;7.824;2022-10-16T14:08:43;23.90;77.20
21033;DHT22;10675;47.976;7.824;2022-10-16T14:11:09;23.90;77.90
21033;DHT22;10675;47.976;7.824;2022-10-16T14:13:43;23.80;75.80
21033;DHT22;10675;47.976;7.824;2022-10-16T14:16:17;23.80;75.00
21033;DHT22;10675;47.976;7.824;2022-10-16T14:18:48;23.80;77.80
21033;DHT22;10675;47.976;7.824;2022-10-16T14:21:19;23.70;80.80
21033;DHT22;10675;47.976;7.824;2022-10-16T14:23:45;23.60;76.00
21033;DHT22;10675;47.976;7.824;2022-10-16T14:28:39;23.50;80.60
21033;DHT22;10675;47.976;7.824;2022-10-16T14:31:40;23.50;79.70
21033;DHT22;10675;47.976;7.824;2022-10-16T14:34:29;23.50;79.90
21033;DHT22;10675;47.976;7.824;2022-10-16T14:36:56;23.50;81.10
21033;DHT22;10675;47.976;7.824;2022-10-16T14:39:23;23.60;77.90
21033;DHT22;10675;47.976;7.824;2022-10-16T14:41:54;23.60;75.90
21033;DHT22;10675;47.976;7.824;2022-10-16T14:44:29;23.60;78.70
21033;DHT22;10675;47.976;7.824;2022-10-16T14:46:56;23.50;81.50
21033;DHT22;10675;47.976;7.824;2022-10-16T14:49:23;23.50;83.70
21033;DHT22;10675;47.976;7.824;2022-10-16T14:51:49;23.40;85.60
21033;DHT22;10675;47.976;7.824;2022-10-16T14:54:17;23.50;86.30
21033;DHT22;10675;47.976;7.824;2022-10-16T14:56:51;23.40;88.50
21033;DHT22;10675;47.976;7.824;2022-10-16T14:59:25;23.40;88.30
21033;DHT22;10675;47.976;7.824;2022-10-16T15:01:52;23.40;87.90
21033;DHT22;10675;47.976;7.824;2022-10-16T15:04:17;23.30;87.30
21033;DHT22;10675;47.976;7.824;2022-10-16T15:06:44;23.40;85.20
21033;DHT22;10675;47.976;7.824;2022-10-16T15:09:09;23.50;84.60
21033;DHT22;10675;47.976;7.824;2022-10-16T15:11:35;23.40;84.40
21033;DHT22;10675;47.976;7.824;2022-10-16T15:14:01;23.40;87.40
21033;DHT22;10675;47.976;7.824;2022-10-16T15:16:27;23.50;84.00
21033;DHT22;10675;47.976;7.824;2022-10-16T15:18:52;23.60;81.20
21033;DHT22;10675;47.976;7.824;2022-10-16T15:21:25;23.50;88.80
21033;DHT22;10675;47.976;7.824;2022-10-16T15:23:52;23.40;88.80
21033;DHT22;10675;47.976;7.824;2022-10-16T15:26:17;23.40;87.90
21033;DHT22;10675;47.976;7.824;2022-10-16T15:28:43;23.30;91.60
21033;DHT22;10675;47.976;7.824;2022-10-16T15:31:09;23.10;92.70
21033;DHT22;10675;47.976;7.824;2022-10-16T15:33:34;23.20;90.60
21033;DHT22;10675;47.976;7.824;2022-10-16T15:36:01;23.30;90.50
21033;DHT22;10675;47.976;7.824;2022-10-16T15:38:28;23.20;91.50
21033;DHT22;10675;47.976;7.824;2022-10-16T15:40:55;23.00;90.40
21033;DHT22;10675;47.976;7.824;2022-10-16T15:43:21;23.00;91.70
21033;DHT22;10675;47.976;7.824;2022-10-16T15:46:03;22.90;92.80
21033;DHT22;10675;47.976;7.824;2022-10-16T15:48:29;22.70;94.10
21033;DHT22;10675;47.976;7.824;2022-10-16T15:50:55;22.50;95.80
21033;DHT22;10675;47.976;7.824;2022-10-16T15:53:21;22.30;96.60
21033;DHT22;10675;47.976;7.824;2022-10-16T15:55:46;22.20;96.60
21033;DHT22;10675;47.976;7.824;2022-10-16T15:58:12;22.10;98.80
21033;DHT22;10675;47.976;7.824;2022-10-16T16:00:37;22.10;99.20
21033;DHT22;10675;47.976;7.824;2022-10-16T16:03:03;22.10;99.00
21033;DHT22;10675;47.976;7.824;2022-10-16T16:05:29;22.00;98.80
21033;DHT22;10675;47.976;7.824;2022-10-16T16:07:54;22.00;98.30
21033;DHT22;10675;47.976;7.824;2022-10-16T16:10:20;22.00;98.70
21033;DHT22;10675;47.976;7.824;2022-10-16T16:12:47;21.90;99.10
21033;DHT22;10675;47.976;7.824;2022-10-16T16:15:17;21.80;99.80
21033;DHT22;10675;47.976;7.824;2022-10-16T16:17:43;21.70;99.90
21033;DHT22;10675;47.976;7.824;2022-10-16T16:20:10;21.70;99.80
21033;DHT22;10675;47.976;7.824;2022-10-16T16:22:35;21.70;99.90
21033;DHT22;10675;47.976;7.824;2022-10-16T16:25:01;21.60;99.90
21033;DHT22;10675;47.976;7.824;2022-10-16T16:27:26;21.70;99.90
21033;DHT22;10675;47.976;7.824;2022-10-16T16:29:54;21.70;99.90
21033;DHT22;10675;47.976;7.824;2022-10-16T16:32:20;21.40;99.90
21033;DHT22;10675;47.976;7.824;2022-10-16T16:34:46;21.50;99.90
21033;DHT22;10675;47.976;7.824;2022-10-16T16:37:12;21.60;99.90
21033;DHT22;10675;47.976;7.824;2022-10-16T16:39:37;21.60;99.90
21033;DHT22;10675;47.976;7.824;2022-10-16T16:42:03;21.70;99.90
21033;DHT22;10675;47.976;7.824;2022-10-16T16:44:29;21.60;99.90
21033;DHT22;10675;47.976;7.824;2022-10-16T16:46:55;21.60;99.90
21033;DHT22;10675;47.976;7.824;2022-10-16T16:49:20;21.30;99.90
21033;DHT22;10675;47.976;7.824;2022-10-16T16:51:46;21.00;99.90
21033;DHT22;10675;47.976;7.824;2022-10-16T16:54:12;21.00;99.90
21033;DHT22;10675;47.976;7.824;2022-10-16T16:56:39;21.10;99.90
21033;DHT22;10675;47.976;7.824;2022-10-16T16:59:12;21.00;99.90
21033;DHT22;10675;47.976;7.824;2022-10-16T17:01:38;21.00;99.90
21033;DHT22;10675;47.976;7.824;2022-10-16T17:04:05;20.80;99.90
21033;DHT22;10675;47.976;7.824;2022-10-16T17:06:31;20.70;99.90
21033;DHT22;10675;47.976;7.824;2022-10-16T17:08:57;20.50;99.90
21033;DHT22;10675;47.976;7.824;2022-10-16T17:11:24;20.30;99.90
21033;DHT22;10675;47.976;7.824;2022-10-16T17:13:52;20.40;99.90
21033;DHT22;10675;47.976;7.824;2022-10-16T17:16:19;20.10;99.90
21033;DHT22;10675;47.976;7.824;2022-10-16T17:18:45;20.10;99.90
21033;DHT22;10675;47.976;7.824;2022-10-16T17:21:11;19.90;99.90
21033;DHT22;10675;47.976;7.824;2022-10-16T17:23:37;19.70;99.90
21033;DHT22;10675;47.976;7.824;2022-10-16T17:26:14;19.60;99.90
21033;DHT22;10675;47.976;7.824;2022-10-16T17:28:41;19.40;99.90